sensor_id;sensor_type;location;lat;lon;timestamp;P1;durP1;ratioP1;P2;durP2;ratioP2
28459;SDS011;32528;45.712;9.192;2023-05-16T00:00:14;5.93;;;3.25;;
28459;SDS011;32528;45.712;9.192;2023-05-16T00:02:15;7.15;;;3.47;;
28459;SDS011;32528;45.712;9.192;2023-05-16T00:04:18;6.82;;;4.07;;
28459;SDS011;32528;45.712;9.192;2023-05-16T00:06:20;6.80;;;3.70;;
28459;SDS011;32528;45.712;9.192;2023-05-16T00:08:21;10.63;;;4.90;;
28459;SDS011;32528;45.712;9.192;2023-05-16T00:10:22;8.02;;;5.15;;
28459;SDS011;32528;45.712;9.192;2023-05-16T00:12:23;6.82;;;4.32;;
28459;SDS011;32528;45.712;9.192;2023-05-16T00:14:25;10.50;;;6.10;;
28459;SDS011;32528;45.712;9.192;2023-05-16T00:16:26;15.45;;;5.00;;
28459;SDS011;32528;45.712;9.192;2023-05-16T00:18:29;9.45;;;4.32;;
28459;SDS011;32528;45.712;9.192;2023-05-16T00:20:29;6.10;;;3.67;;
28459;SDS011;32528;45.712;9.192;2023-05-16T00:22:31;10.13;;;4.45;;
28459;SDS011;32528;45.712;9.192;2023-05-16T00:24:32;14.95;;;6.32;;
28459;SDS011;32528;45.712;9.192;2023-05-16T00:26:33;10.55;;;6.07;;
28459;SDS011;32528;45.712;9.192;2023-05-16T00:28:34;9.55;;;6.22;;
28459;SDS011;32528;45.712;9.192;2023-05-16T00:30:35;10.10;;;5.97;;
28459;SDS011;32528;45.712;9.192;2023-05-16T00:32:36;8.02;;;5.13;;
28459;SDS011;32528;45.712;9.192;2023-05-16T00:34:37;8.50;;;4.93;;
28459;SDS011;32528;45.712;9.192;2023-05-16T00:36:38;6.05;;;4.18;;
28459;SDS011;32528;45.712;9.192;2023-05-16T00:38:38;7.38;;;4.55;;
28459;SDS011;32528;45.712;9.192;2023-05-16T00:40:40;7.43;;;4.35;;
28459;SDS011;32528;45.712;9.192;2023-05-16T00:42:43;7.55;;;4.43;;
28459;SDS011;32528;45.712;9.192;2023-05-16T00:44:44;7.70;;;3.90;;
28459;SDS011;32528;45.712;9.192;2023-05-16T00:46:45;8.98;;;3.65;;
28459;SDS011;32528;45.712;9.192;2023-05-16T00:48:46;7.43;;;4.03;;
28459;SDS011;32528;45.712;9.192;2023-05-16T00:50:47;9.27;;;4.28;;
28459;SDS011;32528;45.712;9.192;2023-05-16T00:52:48;8.38;;;3.95;;
28459;SDS011;32528;45.712;9.192;2023-05-16T00:54:49;6.65;;;3.42;;
28459;SDS011;32528;45.712;9.192;2023-05-16T00:56:51;10.27;;;3.97;;
28459;SDS011;32528;45.712;9.192;2023-05-16T00:58:52;7.60;;;4.03;;
28459;SDS011;32528;45.712;9.192;2023-05-16T01:00:53;5.85;;;3.42;;
28459;SDS011;32528;45.712;9.192;2023-05-16T01:02:55;7.57;;;4.15;;
28459;SDS011;32528;45.712;9.192;2023-05-16T01:04:56;11.20;;;4.63;;
28459;SDS011;32528;45.712;9.192;2023-05-16T01:06:57;15.48;;;4.93;;
28459;SDS011;32528;45.712;9.192;2023-05-16T01:08:59;6.35;;;4.20;;
28459;SDS011;32528;45.712;9.192;2023-05-16T01:15:38;13.73;;;4.13;;
28459;SDS011;32528;45.712;9.192;2023-05-16T01:17:59;11.88;;;4.57;;
28459;SDS011;32528;45.712;9.192;2023-05-16T01:22:37;8.85;;;4.43;;
28459;SDS011;32528;45.712;9.192;2023-05-16T01:26:49;8.38;;;4.50;;
28459;SDS011;32528;45.712;9.192;2023-05-16T01:28:52;7.30;;;3.92;;
28459;SDS011;32528;45.712;9.192;2023-05-16T01:30:53;7.03;;;4.13;;
28459;SDS011;32528;45.712;9.192;2023-05-16T01:32:56;7.22;;;3.85;;
28459;SDS011;32528;45.712;9.192;2023-05-16T01:34:57;7.68;;;4.95;;
28459;SDS011;32528;45.712;9.192;2023-05-16T01:37:04;8.55;;;5.18;;
28459;SDS011;32528;45.712;9.192;2023-05-16T01:39:26;8.20;;;4.47;;
28459;SDS011;32528;45.712;9.192;2023-05-16T01:43:58;9.18;;;4.40;;
28459;SDS011;32528;45.712;9.192;2023-05-16T01:48:15;7.47;;;4.63;;
28459;SDS011;32528;45.712;9.192;2023-05-16T01:50:20;6.07;;;3.60;;
28459;SDS011;32528;45.712;9.192;2023-05-16T01:52:35;7.38;;;3.90;;
28459;SDS011;32528;45.712;9.192;2023-05-16T01:54:57;9.35;;;4.45;;
28459;SDS011;32528;45.712;9.192;2023-05-16T01:57:00;8.02;;;4.30;;
28459;SDS011;32528;45.712;9.192;2023-05-16T01:59:03;8.73;;;5.00;;
28459;SDS011;32528;45.712;9.192;2023-05-16T02:01:05;9.32;;;4.88;;
28459;SDS011;32528;45.712;9.192;2023-05-16T02:03:07;8.02;;;5.00;;
28459;SDS011;32528;45.712;9.192;2023-05-16T02:05:08;10.38;;;4.60;;
28459;SDS011;32528;45.712;9.192;2023-05-16T02:07:10;7.53;;;4.30;;
28459;SDS011;32528;45.712;9.192;2023-05-16T02:09:11;6.30;;;4.10;;
28459;SDS011;32528;45.712;9.192;2023-05-16T02:11:14;9.75;;;4.82;;
28459;SDS011;32528;45.712;9.192;2023-05-16T02:13:14;9.55;;;3.80;;
28459;SDS011;32528;45.712;9.192;2023-05-16T02:15:16;7.57;;;4.63;;
28459;SDS011;32528;45.712;9.192;2023-05-16T02:17:17;7.90;;;4.18;;
28459;SDS011;32528;45.712;9.192;2023-05-16T02:19:17;10.00;;;4.18;;
28459;SDS011;32528;45.712;9.192;2023-05-16T02:21:18;8.73;;;5.43;;
28459;SDS011;32528;45.712;9.192;2023-05-16T02:23:19;12.35;;;4.95;;
28459;SDS011;32528;45.712;9.192;2023-05-16T02:25:20;8.27;;;4.32;;
28459;SDS011;32528;45.712;9.192;2023-05-16T02:27:21;6.80;;;3.83;;
28459;SDS011;32528;45.712;9.192;2023-05-16T02:29:22;7.45;;;4.55;;
28459;SDS011;32528;45.712;9.192;2023-05-16T02:31:28;6.68;;;3.80;;
28459;SDS011;32528;45.712;9.192;2023-05-16T02:33:30;6.82;;;3.88;;
28459;SDS011;32528;45.712;9.192;2023-05-16T02:35:31;7.50;;;4.50;;
28459;SDS011;32528;45.712;9.192;2023-05-16T02:37:33;8.50;;;4.07;;
28459;SDS011;32528;45.712;9.192;2023-05-16T02:39:34;6.75;;;4.57;;
28459;SDS011;32528;45.712;9.192;2023-05-16T02:41:35;8.57;;;4.65;;
28459;SDS011;32528;45.712;9.192;2023-05-16T02:43:36;6.80;;;4.18;;
28459;SDS011;32528;45.712;9.192;2023-05-16T02:45:37;6.65;;;4.43;;
28459;SDS011;32528;45.712;9.192;2023-05-16T02:47:37;6.60;;;4.25;;
28459;SDS011;32528;45.712;9.192;2023-05-16T02:49:39;8.48;;;3.92;;
28459;SDS011;32528;45.712;9.192;2023-05-16T02:51:40;7.55;;;4.50;;
28459;SDS011;32528;45.712;9.192;2023-05-16T02:53:41;7.82;;;3.92;;
28459;SDS011;32528;45.712;9.192;2023-05-16T02:55:42;6.43;;;3.85;;
28459;SDS011;32528;45.712;9.192;2023-05-16T02:57:42;15.13;;;4.18;;
28459;SDS011;32528;45.712;9.192;2023-05-16T02:59:45;6.78;;;3.83;;
28459;SDS011;32528;45.712;9.192;2023-05-16T03:01:46;7.10;;;3.67;;
28459;SDS011;32528;45.712;9.192;2023-05-16T03:03:48;7.88;;;3.67;;
28459;SDS011;32528;45.712;9.192;2023-05-16T03:05:49;6.78;;;4.07;;
28459;SDS011;32528;45.712;9.192;2023-05-16T03:07:50;5.78;;;3.63;;
28459;SDS011;32528;45.712;9.192;2023-05-16T03:09:51;5.90;;;3.80;;
28459;SDS011;32528;45.712;9.192;2023-05-16T03:11:52;7.07;;;3.72;;
28459;SDS011;32528;45.712;9.192;2023-05-16T03:13:53;5.93;;;3.65;;
28459;SDS011;32528;45.712;9.192;2023-05-16T03:15:54;5.95;;;3.47;;
28459;SDS011;32528;45.712;9.192;2023-05-16T03:17:55;9.43;;;3.50;;
28459;SDS011;32528;45.712;9.192;2023-05-16T03:19:57;7.00;;;3.55;;
28459;SDS011;32528;45.712;9.192;2023-05-16T03:21:57;4.95;;;2.75;;
28459;SDS011;32528;45.712;9.192;2023-05-16T03:23:58;7.60;;;2.85;;
28459;SDS011;32528;45.712;9.192;2023-05-16T03:25:59;4.22;;;2.25;;
28459;SDS011;32528;45.712;9.192;2023-05-16T03:28:01;11.45;;;3.28;;
28459;SDS011;32528;45.712;9.192;2023-05-16T03:30:07;5.40;;;2.72;;
28459;SDS011;32528;45.712;9.192;2023-05-16T03:32:09;4.68;;;2.63;;
28459;SDS011;32528;45.712;9.192;2023-05-16T03:34:10;5.38;;;3.20;;
28459;SDS011;32528;45.712;9.192;2023-05-16T03:36:11;5.00;;;2.97;;
28459;SDS011;32528;45.712;9.192;2023-05-16T03:38:12;4.75;;;2.90;;
28459;SDS011;32528;45.712;9.192;2023-05-16T03:40:13;5.22;;;2.88;;
28459;SDS011;32528;45.712;9.192;2023-05-16T03:42:14;5.07;;;2.92;;
28459;SDS011;32528;45.712;9.192;2023-05-16T03:44:15;4.95;;;3.05;;
28459;SDS011;32528;45.712;9.192;2023-05-16T03:46:16;9.02;;;2.60;;
28459;SDS011;32528;45.712;9.192;2023-05-16T03:48:17;4.95;;;2.80;;
28459;SDS011;32528;45.712;9.192;2023-05-16T03:50:17;6.10;;;2.70;;
28459;SDS011;32528;45.712;9.192;2023-05-16T03:52:18;6.38;;;2.65;;
28459;SDS011;32528;45.712;9.192;2023-05-16T03:54:19;4.22;;;2.45;;
28459;SDS011;32528;45.712;9.192;2023-05-16T03:56:20;6.93;;;2.30;;
28459;SDS011;32528;45.712;9.192;2023-05-16T03:58:21;10.98;;;2.28;;
28459;SDS011;32528;45.712;9.192;2023-05-16T04:00:22;5.47;;;2.78;;
28459;SDS011;32528;45.712;9.192;2023-05-16T04:02:23;4.63;;;2.25;;
28459;SDS011;32528;45.712;9.192;2023-05-16T04:04:23;5.85;;;2.38;;
28459;SDS011;32528;45.712;9.192;2023-05-16T04:06:25;6.13;;;2.20;;
28459;SDS011;32528;45.712;9.192;2023-05-16T04:08:26;7.90;;;2.60;;
28459;SDS011;32528;45.712;9.192;2023-05-16T04:10:26;9.55;;;2.35;;
28459;SDS011;32528;45.712;9.192;2023-05-16T04:16:30;3.97;;;2.00;;
28459;SDS011;32528;45.712;9.192;2023-05-16T04:18:31;13.50;;;2.67;;
28459;SDS011;32528;45.712;9.192;2023-05-16T04:20:33;4.47;;;1.92;;
28459;SDS011;32528;45.712;9.192;2023-05-16T04:22:34;6.25;;;2.53;;
28459;SDS011;32528;45.712;9.192;2023-05-16T04:24:35;4.05;;;2.25;;
28459;SDS011;32528;45.712;9.192;2023-05-16T04:26:36;4.93;;;2.45;;
28459;SDS011;32528;45.712;9.192;2023-05-16T04:32:38;5.55;;;2.30;;
28459;SDS011;32528;45.712;9.192;2023-05-16T04:34:39;4.80;;;2.45;;
28459;SDS011;32528;45.712;9.192;2023-05-16T04:36:40;4.80;;;2.58;;
28459;SDS011;32528;45.712;9.192;2023-05-16T04:38:41;7.47;;;2.53;;
28459;SDS011;32528;45.712;9.192;2023-05-16T04:40:42;6.47;;;2.20;;
28459;SDS011;32528;45.712;9.192;2023-05-16T04:42:43;4.25;;;1.95;;
28459;SDS011;32528;45.712;9.192;2023-05-16T04:46:46;8.70;;;2.00;;
28459;SDS011;32528;45.712;9.192;2023-05-16T04:48:48;5.82;;;2.03;;
28459;SDS011;32528;45.712;9.192;2023-05-16T04:50:49;4.20;;;1.98;;
28459;SDS011;32528;45.712;9.192;2023-05-16T04:52:51;5.10;;;2.22;;
28459;SDS011;32528;45.712;9.192;2023-05-16T04:54:52;3.28;;;2.03;;
28459;SDS011;32528;45.712;9.192;2023-05-16T04:56:53;4.30;;;2.85;;
28459;SDS011;32528;45.712;9.192;2023-05-16T04:58:53;4.28;;;1.85;;
28459;SDS011;32528;45.712;9.192;2023-05-16T05:00:54;3.85;;;1.88;;
28459;SDS011;32528;45.712;9.192;2023-05-16T05:02:55;2.97;;;1.73;;
28459;SDS011;32528;45.712;9.192;2023-05-16T05:04:56;4.43;;;1.88;;
28459;SDS011;32528;45.712;9.192;2023-05-16T05:06:57;3.63;;;1.75;;
28459;SDS011;32528;45.712;9.192;2023-05-16T05:08:59;4.72;;;2.20;;
28459;SDS011;32528;45.712;9.192;2023-05-16T05:10:59;6.60;;;1.67;;
28459;SDS011;32528;45.712;9.192;2023-05-16T05:13:00;3.35;;;1.40;;
28459;SDS011;32528;45.712;9.192;2023-05-16T05:15:01;3.50;;;1.88;;
28459;SDS011;32528;45.712;9.192;2023-05-16T05:17:02;3.83;;;1.58;;
28459;SDS011;32528;45.712;9.192;2023-05-16T05:19:03;3.40;;;1.92;;
28459;SDS011;32528;45.712;9.192;2023-05-16T05:21:04;4.00;;;1.88;;
28459;SDS011;32528;45.712;9.192;2023-05-16T05:23:05;2.58;;;1.35;;
28459;SDS011;32528;45.712;9.192;2023-05-16T05:25:05;4.95;;;2.20;;
28459;SDS011;32528;45.712;9.192;2023-05-16T05:27:07;6.10;;;1.63;;
28459;SDS011;32528;45.712;9.192;2023-05-16T05:29:08;5.30;;;1.65;;
28459;SDS011;32528;45.712;9.192;2023-05-16T05:31:08;8.57;;;2.10;;
28459;SDS011;32528;45.712;9.192;2023-05-16T05:33:09;8.07;;;1.88;;
28459;SDS011;32528;45.712;9.192;2023-05-16T05:35:15;2.53;;;1.33;;
28459;SDS011;32528;45.712;9.192;2023-05-16T05:37:16;5.28;;;1.60;;
28459;SDS011;32528;45.712;9.192;2023-05-16T05:39:17;4.75;;;2.03;;
28459;SDS011;32528;45.712;9.192;2023-05-16T05:41:18;4.53;;;1.88;;
28459;SDS011;32528;45.712;9.192;2023-05-16T05:43:19;7.47;;;1.63;;
28459;SDS011;32528;45.712;9.192;2023-05-16T05:45:19;4.97;;;1.30;;
28459;SDS011;32528;45.712;9.192;2023-05-16T05:47:20;2.10;;;1.42;;
28459;SDS011;32528;45.712;9.192;2023-05-16T05:49:21;5.00;;;1.38;;
28459;SDS011;32528;45.712;9.192;2023-05-16T05:51:25;2.30;;;1.45;;
28459;SDS011;32528;45.712;9.192;2023-05-16T05:53:26;7.43;;;1.27;;
28459;SDS011;32528;45.712;9.192;2023-05-16T05:55:27;11.23;;;1.75;;
28459;SDS011;32528;45.712;9.192;2023-05-16T05:57:28;2.33;;;1.20;;
28459;SDS011;32528;45.712;9.192;2023-05-16T05:59:28;8.70;;;1.50;;
28459;SDS011;32528;45.712;9.192;2023-05-16T06:01:30;3.28;;;1.45;;
28459;SDS011;32528;45.712;9.192;2023-05-16T06:03:31;6.20;;;1.20;;
28459;SDS011;32528;45.712;9.192;2023-05-16T06:05:32;4.10;;;1.50;;
28459;SDS011;32528;45.712;9.192;2023-05-16T06:07:33;3.38;;;1.40;;
28459;SDS011;32528;45.712;9.192;2023-05-16T06:09:33;3.80;;;2.35;;
28459;SDS011;32528;45.712;9.192;2023-05-16T06:11:34;3.00;;;1.58;;
28459;SDS011;32528;45.712;9.192;2023-05-16T06:13:35;2.15;;;1.38;;
28459;SDS011;32528;45.712;9.192;2023-05-16T06:15:36;4.15;;;1.67;;
28459;SDS011;32528;45.712;9.192;2023-05-16T06:17:36;7.65;;;2.30;;
28459;SDS011;32528;45.712;9.192;2023-05-16T06:19:37;5.70;;;2.50;;
28459;SDS011;32528;45.712;9.192;2023-05-16T06:21:39;14.60;;;3.00;;
28459;SDS011;32528;45.712;9.192;2023-05-16T06:23:39;5.00;;;2.55;;
28459;SDS011;32528;45.712;9.192;2023-05-16T06:25:40;12.52;;;5.65;;
28459;SDS011;32528;45.712;9.192;2023-05-16T06:27:41;9.20;;;5.22;;
28459;SDS011;32528;45.712;9.192;2023-05-16T06:29:42;22.45;;;7.38;;
28459;SDS011;32528;45.712;9.192;2023-05-16T06:31:43;15.02;;;7.53;;
28459;SDS011;32528;45.712;9.192;2023-05-16T06:33:45;16.90;;;7.60;;
28459;SDS011;32528;45.712;9.192;2023-05-16T06:35:46;17.50;;;8.15;;
28459;SDS011;32528;45.712;9.192;2023-05-16T06:37:48;26.38;;;8.02;;
28459;SDS011;32528;45.712;9.192;2023-05-16T06:39:49;13.55;;;7.53;;
28459;SDS011;32528;45.712;9.192;2023-05-16T06:41:50;17.05;;;8.13;;
28459;SDS011;32528;45.712;9.192;2023-05-16T06:43:50;23.13;;;8.18;;
28459;SDS011;32528;45.712;9.192;2023-05-16T06:45:51;17.52;;;6.55;;
28459;SDS011;32528;45.712;9.192;2023-05-16T06:47:52;23.85;;;7.18;;
28459;SDS011;32528;45.712;9.192;2023-05-16T06:49:53;12.52;;;7.22;;
28459;SDS011;32528;45.712;9.192;2023-05-16T06:51:54;23.23;;;6.45;;
28459;SDS011;32528;45.712;9.192;2023-05-16T06:53:54;13.63;;;6.68;;
28459;SDS011;32528;45.712;9.192;2023-05-16T06:55:55;14.27;;;8.27;;
28459;SDS011;32528;45.712;9.192;2023-05-16T06:57:56;24.90;;;7.13;;
28459;SDS011;32528;45.712;9.192;2023-05-16T06:59:56;12.68;;;6.80;;
28459;SDS011;32528;45.712;9.192;2023-05-16T07:01:57;12.05;;;7.50;;
28459;SDS011;32528;45.712;9.192;2023-05-16T07:03:58;12.00;;;8.05;;
28459;SDS011;32528;45.712;9.192;2023-05-16T07:05:59;15.45;;;6.95;;
28459;SDS011;32528;45.712;9.192;2023-05-16T07:07:59;12.27;;;7.80;;
28459;SDS011;32528;45.712;9.192;2023-05-16T07:10:01;20.17;;;7.50;;
28459;SDS011;32528;45.712;9.192;2023-05-16T07:12:02;19.13;;;7.78;;
28459;SDS011;32528;45.712;9.192;2023-05-16T07:14:03;15.00;;;8.73;;
28459;SDS011;32528;45.712;9.192;2023-05-16T07:16:04;18.13;;;11.27;;
28459;SDS011;32528;45.712;9.192;2023-05-16T07:18:06;14.40;;;8.18;;
28459;SDS011;32528;45.712;9.192;2023-05-16T07:20:07;15.60;;;9.73;;
28459;SDS011;32528;45.712;9.192;2023-05-16T07:22:13;22.20;;;11.15;;
28459;SDS011;32528;45.712;9.192;2023-05-16T07:24:14;16.52;;;9.82;;
28459;SDS011;32528;45.712;9.192;2023-05-16T07:26:15;21.75;;;12.05;;
28459;SDS011;32528;45.712;9.192;2023-05-16T07:28:16;16.10;;;11.27;;
28459;SDS011;32528;45.712;9.192;2023-05-16T07:30:17;14.02;;;9.93;;
28459;SDS011;32528;45.712;9.192;2023-05-16T07:32:17;22.55;;;8.27;;
28459;SDS011;32528;45.712;9.192;2023-05-16T07:34:19;14.63;;;7.10;;
28459;SDS011;32528;45.712;9.192;2023-05-16T07:36:20;9.18;;;5.28;;
28459;SDS011;32528;45.712;9.192;2023-05-16T07:38:21;18.35;;;5.32;;
28459;SDS011;32528;45.712;9.192;2023-05-16T07:40:22;14.13;;;5.50;;
28459;SDS011;32528;45.712;9.192;2023-05-16T07:42:27;14.27;;;4.95;;
28459;SDS011;32528;45.712;9.192;2023-05-16T07:44:28;8.70;;;4.15;;
28459;SDS011;32528;45.712;9.192;2023-05-16T07:46:28;15.00;;;4.70;;
28459;SDS011;32528;45.712;9.192;2023-05-16T07:48:29;8.32;;;4.65;;
28459;SDS011;32528;45.712;9.192;2023-05-16T07:54:31;7.13;;;3.40;;
28459;SDS011;32528;45.712;9.192;2023-05-16T17:24:53;8.40;;;4.32;;
28459;SDS011;32528;45.712;9.192;2023-05-16T17:26:54;8.50;;;3.95;;
28459;SDS011;32528;45.712;9.192;2023-05-16T17:28:56;11.50;;;4.25;;
28459;SDS011;32528;45.712;9.192;2023-05-16T17:31:01;11.52;;;4.93;;
28459;SDS011;32528;45.712;9.192;2023-05-16T17:33:03;14.40;;;4.72;;
28459;SDS011;32528;45.712;9.192;2023-05-16T17:35:04;12.90;;;4.00;;
28459;SDS011;32528;45.712;9.192;2023-05-16T17:37:05;9.27;;;3.72;;
28459;SDS011;32528;45.712;9.192;2023-05-16T17:39:06;7.68;;;3.38;;
28459;SDS011;32528;45.712;9.192;2023-05-16T17:41:08;6.72;;;3.42;;
28459;SDS011;32528;45.712;9.192;2023-05-16T17:43:10;6.47;;;3.40;;
28459;SDS011;32528;45.712;9.192;2023-05-16T17:45:11;11.48;;;3.80;;
28459;SDS011;32528;45.712;9.192;2023-05-16T17:47:13;11.65;;;3.58;;
28459;SDS011;32528;45.712;9.192;2023-05-16T17:49:15;15.80;;;4.70;;
28459;SDS011;32528;45.712;9.192;2023-05-16T17:51:18;7.32;;;3.78;;
28459;SDS011;32528;45.712;9.192;2023-05-16T17:53:18;6.82;;;3.65;;
28459;SDS011;32528;45.712;9.192;2023-05-16T17:55:19;7.80;;;3.58;;
28459;SDS011;32528;45.712;9.192;2023-05-16T17:57:22;11.63;;;4.93;;
28459;SDS011;32528;45.712;9.192;2023-05-16T17:59:24;8.03;;;4.87;;
28459;SDS011;32528;45.712;9.192;2023-05-16T18:01:26;10.93;;;4.27;;
28459;SDS011;32528;45.712;9.192;2023-05-16T18:03:28;8.45;;;4.30;;
28459;SDS011;32528;45.712;9.192;2023-05-16T18:05:29;9.35;;;4.53;;
28459;SDS011;32528;45.712;9.192;2023-05-16T18:07:29;8.47;;;3.97;;
28459;SDS011;32528;45.712;9.192;2023-05-16T18:09:30;6.50;;;3.90;;
28459;SDS011;32528;45.712;9.192;2023-05-16T18:11:35;7.47;;;4.27;;
28459;SDS011;32528;45.712;9.192;2023-05-16T18:13:37;8.23;;;4.35;;
28459;SDS011;32528;45.712;9.192;2023-05-16T18:15:38;7.85;;;4.20;;
28459;SDS011;32528;45.712;9.192;2023-05-16T18:17:39;7.25;;;3.35;;
28459;SDS011;32528;45.712;9.192;2023-05-16T18:19:40;9.15;;;3.88;;
28459;SDS011;32528;45.712;9.192;2023-05-16T18:21:41;7.78;;;3.17;;
28459;SDS011;32528;45.712;9.192;2023-05-16T18:23:43;22.60;;;12.05;;
28459;SDS011;32528;45.712;9.192;2023-05-16T18:25:44;13.30;;;7.07;;
28459;SDS011;32528;45.712;9.192;2023-05-16T18:27:44;9.13;;;5.00;;
28459;SDS011;32528;45.712;9.192;2023-05-16T18:31:46;11.25;;;4.38;;
28459;SDS011;32528;45.712;9.192;2023-05-16T18:33:46;4.88;;;2.90;;
28459;SDS011;32528;45.712;9.192;2023-05-16T18:35:48;5.47;;;2.78;;
28459;SDS011;32528;45.712;9.192;2023-05-16T18:37:51;7.65;;;3.83;;
28459;SDS011;32528;45.712;9.192;2023-05-16T18:39:51;10.40;;;3.50;;
28459;SDS011;32528;45.712;9.192;2023-05-16T18:43:53;6.45;;;3.55;;
28459;SDS011;32528;45.712;9.192;2023-05-16T18:45:53;10.65;;;5.18;;
28459;SDS011;32528;45.712;9.192;2023-05-16T18:47:55;10.02;;;3.25;;
28459;SDS011;32528;45.712;9.192;2023-05-16T18:49:55;8.73;;;2.95;;
28459;SDS011;32528;45.712;9.192;2023-05-16T18:51:57;8.93;;;3.22;;
28459;SDS011;32528;45.712;9.192;2023-05-16T18:53:58;10.25;;;5.78;;
28459;SDS011;32528;45.712;9.192;2023-05-16T18:56:01;9.85;;;4.07;;
28459;SDS011;32528;45.712;9.192;2023-05-16T18:58:01;9.45;;;2.65;;
28459;SDS011;32528;45.712;9.192;2023-05-16T19:00:02;7.88;;;3.75;;
28459;SDS011;32528;45.712;9.192;2023-05-16T19:02:03;17.08;;;6.28;;
28459;SDS011;32528;45.712;9.192;2023-05-16T19:04:04;10.18;;;4.05;;
28459;SDS011;32528;45.712;9.192;2023-05-16T19:06:05;9.65;;;3.90;;
28459;SDS011;32528;45.712;9.192;2023-05-16T19:08:06;13.00;;;4.25;;
28459;SDS011;32528;45.712;9.192;2023-05-16T19:10:07;9.27;;;4.03;;
28459;SDS011;32528;45.712;9.192;2023-05-16T19:12:10;11.82;;;3.70;;
28459;SDS011;32528;45.712;9.192;2023-05-16T19:14:10;10.98;;;4.18;;
28459;SDS011;32528;45.712;9.192;2023-05-16T19:16:12;9.07;;;3.38;;
28459;SDS011;32528;45.712;9.192;2023-05-16T19:18:13;10.48;;;4.07;;
28459;SDS011;32528;45.712;9.192;2023-05-16T19:20:15;6.63;;;3.17;;
28459;SDS011;32528;45.712;9.192;2023-05-16T19:22:16;7.35;;;2.92;;
28459;SDS011;32528;45.712;9.192;2023-05-16T19:24:16;5.38;;;2.85;;
28459;SDS011;32528;45.712;9.192;2023-05-16T19:26:17;9.05;;;3.30;;
28459;SDS011;32528;45.712;9.192;2023-05-16T19:28:18;6.45;;;2.45;;
28459;SDS011;32528;45.712;9.192;2023-05-16T19:30:19;7.50;;;3.45;;
28459;SDS011;32528;45.712;9.192;2023-05-16T19:32:20;5.95;;;3.17;;
28459;SDS011;32528;45.712;9.192;2023-05-16T19:34:20;7.78;;;3.13;;
28459;SDS011;32528;45.712;9.192;2023-05-16T19:36:22;10.80;;;4.38;;
28459;SDS011;32528;45.712;9.192;2023-05-16T19:38:23;7.65;;;3.85;;
28459;SDS011;32528;45.712;9.192;2023-05-16T19:40:24;7.45;;;3.35;;
28459;SDS011;32528;45.712;9.192;2023-05-16T19:42:25;8.43;;;3.65;;
28459;SDS011;32528;45.712;9.192;2023-05-16T19:44:26;9.02;;;3.30;;
28459;SDS011;32528;45.712;9.192;2023-05-16T19:46:27;9.20;;;3.20;;
28459;SDS011;32528;45.712;9.192;2023-05-16T19:48:27;9.27;;;3.53;;
28459;SDS011;32528;45.712;9.192;2023-05-16T19:50:28;6.53;;;3.15;;
28459;SDS011;32528;45.712;9.192;2023-05-16T19:52:29;6.05;;;2.58;;
28459;SDS011;32528;45.712;9.192;2023-05-16T19:54:29;9.75;;;2.55;;
28459;SDS011;32528;45.712;9.192;2023-05-16T19:56:31;5.78;;;2.03;;
28459;SDS011;32528;45.712;9.192;2023-05-16T19:58:32;4.45;;;2.13;;
28459;SDS011;32528;45.712;9.192;2023-05-16T20:00:34;9.48;;;5.50;;
28459;SDS011;32528;45.712;9.192;2023-05-16T20:02:35;9.80;;;2.58;;
28459;SDS011;32528;45.712;9.192;2023-05-16T20:04:35;6.18;;;2.53;;
28459;SDS011;32528;45.712;9.192;2023-05-16T20:06:36;4.82;;;2.50;;
28459;SDS011;32528;45.712;9.192;2023-05-16T20:08:38;6.88;;;2.55;;
28459;SDS011;32528;45.712;9.192;2023-05-16T20:10:38;6.05;;;2.30;;
28459;SDS011;32528;45.712;9.192;2023-05-16T20:12:39;7.47;;;2.90;;
28459;SDS011;32528;45.712;9.192;2023-05-16T20:14:40;9.18;;;3.15;;
28459;SDS011;32528;45.712;9.192;2023-05-16T20:16:41;8.38;;;2.92;;
28459;SDS011;32528;45.712;9.192;2023-05-16T20:18:42;6.68;;;2.50;;
28459;SDS011;32528;45.712;9.192;2023-05-16T20:20:43;7.78;;;2.70;;
28459;SDS011;32528;45.712;9.192;2023-05-16T20:22:44;3.92;;;2.15;;
28459;SDS011;32528;45.712;9.192;2023-05-16T20:24:45;7.30;;;2.85;;
28459;SDS011;32528;45.712;9.192;2023-05-16T20:26:45;5.05;;;2.55;;
28459;SDS011;32528;45.712;9.192;2023-05-16T20:28:47;5.70;;;2.78;;
28459;SDS011;32528;45.712;9.192;2023-05-16T20:30:47;6.53;;;2.63;;
28459;SDS011;32528;45.712;9.192;2023-05-16T20:32:49;7.65;;;2.53;;
28459;SDS011;32528;45.712;9.192;2023-05-16T20:34:49;7.15;;;2.97;;
28459;SDS011;32528;45.712;9.192;2023-05-16T20:36:51;5.43;;;2.92;;
28459;SDS011;32528;45.712;9.192;2023-05-16T20:38:51;4.65;;;2.42;;
28459;SDS011;32528;45.712;9.192;2023-05-16T20:40:54;4.50;;;2.17;;
28459;SDS011;32528;45.712;9.192;2023-05-16T20:42:55;6.57;;;2.13;;
28459;SDS011;32528;45.712;9.192;2023-05-16T20:44:56;5.60;;;2.47;;
28459;SDS011;32528;45.712;9.192;2023-05-16T20:46:56;5.00;;;2.83;;
28459;SDS011;32528;45.712;9.192;2023-05-16T20:48:57;5.22;;;2.53;;
28459;SDS011;32528;45.712;9.192;2023-05-16T20:50:58;6.25;;;2.88;;
28459;SDS011;32528;45.712;9.192;2023-05-16T20:53:01;7.18;;;3.47;;
28459;SDS011;32528;45.712;9.192;2023-05-16T20:55:02;9.57;;;2.95;;
28459;SDS011;32528;45.712;9.192;2023-05-16T20:57:03;7.55;;;3.60;;
28459;SDS011;32528;45.712;9.192;2023-05-16T20:59:04;7.43;;;3.20;;
28459;SDS011;32528;45.712;9.192;2023-05-16T21:01:05;18.00;;;3.47;;
28459;SDS011;32528;45.712;9.192;2023-05-16T21:03:06;9.35;;;2.95;;
28459;SDS011;32528;45.712;9.192;2023-05-16T21:05:06;6.00;;;4.00;;
28459;SDS011;32528;45.712;9.192;2023-05-16T21:07:07;5.85;;;2.85;;
28459;SDS011;32528;45.712;9.192;2023-05-16T21:09:10;10.35;;;3.40;;
28459;SDS011;32528;45.712;9.192;2023-05-16T21:11:11;8.23;;;3.05;;
28459;SDS011;32528;45.712;9.192;2023-05-16T21:13:11;13.18;;;2.88;;
28459;SDS011;32528;45.712;9.192;2023-05-16T21:15:12;5.43;;;2.75;;
28459;SDS011;32528;45.712;9.192;2023-05-16T21:17:14;4.15;;;2.42;;
28459;SDS011;32528;45.712;9.192;2023-05-16T21:19:15;5.63;;;2.53;;
28459;SDS011;32528;45.712;9.192;2023-05-16T21:21:17;4.82;;;2.85;;
28459;SDS011;32528;45.712;9.192;2023-05-16T21:23:18;5.82;;;2.40;;
28459;SDS011;32528;45.712;9.192;2023-05-16T21:25:18;5.45;;;3.50;;
28459;SDS011;32528;45.712;9.192;2023-05-16T21:27:19;18.17;;;4.18;;
28459;SDS011;32528;45.712;9.192;2023-05-16T21:29:20;6.53;;;3.78;;
28459;SDS011;32528;45.712;9.192;2023-05-16T21:31:21;7.43;;;3.42;;
28459;SDS011;32528;45.712;9.192;2023-05-16T21:33:22;5.88;;;2.85;;
28459;SDS011;32528;45.712;9.192;2023-05-16T21:35:23;10.07;;;3.63;;
28459;SDS011;32528;45.712;9.192;2023-05-16T21:37:24;6.97;;;4.28;;
28459;SDS011;32528;45.712;9.192;2023-05-16T21:39:24;6.18;;;3.60;;
28459;SDS011;32528;45.712;9.192;2023-05-16T21:41:26;27.90;;;14.45;;
28459;SDS011;32528;45.712;9.192;2023-05-16T21:43:27;41.85;;;23.35;;
28459;SDS011;32528;45.712;9.192;2023-05-16T21:45:27;28.65;;;14.98;;
28459;SDS011;32528;45.712;9.192;2023-05-16T21:47:28;15.10;;;7.82;;
28459;SDS011;32528;45.712;9.192;2023-05-16T21:49:29;11.75;;;5.72;;
28459;SDS011;32528;45.712;9.192;2023-05-16T21:51:30;9.35;;;4.47;;
28459;SDS011;32528;45.712;9.192;2023-05-16T21:53:31;16.25;;;8.75;;
28459;SDS011;32528;45.712;9.192;2023-05-16T21:55:33;11.88;;;5.78;;
28459;SDS011;32528;45.712;9.192;2023-05-16T21:57:34;6.03;;;3.90;;
28459;SDS011;32528;45.712;9.192;2023-05-16T21:59:35;7.10;;;4.45;;
28459;SDS011;32528;45.712;9.192;2023-05-16T22:01:35;8.43;;;3.58;;
28459;SDS011;32528;45.712;9.192;2023-05-16T22:03:36;12.57;;;3.25;;
28459;SDS011;32528;45.712;9.192;2023-05-16T22:05:37;6.57;;;3.50;;
28459;SDS011;32528;45.712;9.192;2023-05-16T22:07:38;12.23;;;3.72;;